sensor_id;sensor_type;location;lat;lon;timestamp;temperature;humidity
24148;DHT22;12309;51.450;-2.624;2023-03-20T00:00:39;8.40;99.90
24148;DHT22;12309;51.450;-2.624;2023-03-20T00:03:05;8.40;99.90
24148;DHT22;12309;51.450;-2.624;2023-03-20T00:05:31;8.40;99.90
24148;DHT22;12309;51.450;-2.624;2023-03-20T00:07:57;8.40;99.90
24148;DHT22;12309;51.450;-2.624;2023-03-20T00:10:44;8.50;99.90
24148;DHT22;12309;51.450;-2.624;2023-03-20T00:13:14;8.70;99.90
24148;DHT22;12309;51.450;-2.624;2023-03-20T00:15:43;8.40;99.90
24148;DHT22;12309;51.450;-2.624;2023-03-20T00:18:17;8.50;99.90
24148;DHT22;12309;51.450;-2.624;2023-03-20T00:20:45;8.40;99.90
24148;DHT22;12309;51.450;-2.624;2023-03-20T00:23:12;8.40;99.90
24148;DHT22;12309;51.450;-2.624;2023-03-20T00:25:38;8.50;99.90
24148;DHT22;12309;51.450;-2.624;2023-03-20T00:28:30;8.50;99.90
24148;DHT22;12309;51.450;-2.624;2023-03-20T00:30:57;8.50;99.90
24148;DHT22;12309;51.450;-2.624;2023-03-20T00:33:23;8.50;99.90
24148;DHT22;12309;51.450;-2.624;2023-03-20T00:35:48;8.60;99.90
24148;DHT22;12309;51.450;-2.624;2023-03-20T00:38:14;8.10;99.90
24148;DHT22;12309;51.450;-2.624;2023-03-20T00:40:39;8.70;99.90
24148;DHT22;12309;51.450;-2.624;2023-03-20T00:43:05;8.70;99.90
24148;DHT22;12309;51.450;-2.624;2023-03-20T00:45:33;8.70;99.90
24148;DHT22;12309;51.450;-2.624;2023-03-20T00:48:00;8.90;99.90
24148;DHT22;12309;51.450;-2.624;2023-03-20T00:50:29;8.90;99.90
24148;DHT22;12309;51.450;-2.624;2023-03-20T00:52:56;8.80;99.90
24148;DHT22;12309;51.450;-2.624;2023-03-20T00:55:24;8.90;99.90
24148;DHT22;12309;51.450;-2.624;2023-03-20T00:58:01;9.60;99.90
24148;DHT22;12309;51.450;-2.624;2023-03-20T01:00:39;8.90;99.90
24148;DHT22;12309;51.450;-2.624;2023-03-20T01:03:21;8.90;99.90
24148;DHT22;12309;51.450;-2.624;2023-03-20T01:05:48;9.00;99.90
24148;DHT22;12309;51.450;-2.624;2023-03-20T01:08:19;9.00;99.90
24148;DHT22;12309;51.450;-2.624;2023-03-20T01:10:48;9.00;99.90
24148;DHT22;12309;51.450;-2.624;2023-03-20T01:13:26;9.10;99.90
24148;DHT22;12309;51.450;-2.624;2023-03-20T01:15:53;9.20;99.90
24148;DHT22;12309;51.450;-2.624;2023-03-20T01:18:20;9.20;99.90
24148;DHT22;12309;51.450;-2.624;2023-03-20T01:20:46;9.20;99.90
24148;DHT22;12309;51.450;-2.624;2023-03-20T01:23:13;8.90;99.90
24148;DHT22;12309;51.450;-2.624;2023-03-20T01:25:38;9.20;99.90
24148;DHT22;12309;51.450;-2.624;2023-03-20T01:28:19;9.30;99.90
24148;DHT22;12309;51.450;-2.624;2023-03-20T01:30:46;9.30;99.90
24148;DHT22;12309;51.450;-2.624;2023-03-20T01:33:18;9.40;99.90
24148;DHT22;12309;51.450;-2.624;2023-03-20T01:35:45;9.40;99.90
24148;DHT22;12309;51.450;-2.624;2023-03-20T01:38:23;9.60;99.90
24148;DHT22;12309;51.450;-2.624;2023-03-20T01:40:53;9.50;99.90
24148;DHT22;12309;51.450;-2.624;2023-03-20T01:43:21;9.50;99.90
24148;DHT22;12309;51.450;-2.624;2023-03-20T01:45:55;9.60;99.90
24148;DHT22;12309;51.450;-2.624;2023-03-20T01:48:24;9.60;99.90
24148;DHT22;12309;51.450;-2.624;2023-03-20T01:50:50;9.80;99.90
24148;DHT22;12309;51.450;-2.624;2023-03-20T01:53:20;9.70;99.90
24148;DHT22;12309;51.450;-2.624;2023-03-20T01:55:47;9.80;99.90
24148;DHT22;12309;51.450;-2.624;2023-03-20T01:58:19;9.90;99.90
24148;DHT22;12309;51.450;-2.624;2023-03-20T02:00:46;9.90;99.90
24148;DHT22;12309;51.450;-2.624;2023-03-20T02:03:14;9.90;99.90
24148;DHT22;12309;51.450;-2.624;2023-03-20T02:05:41;10.10;99.90
24148;DHT22;12309;51.450;-2.624;2023-03-20T02:08:24;10.00;99.90
24148;DHT22;12309;51.450;-2.624;2023-03-20T02:10:51;10.00;99.90
24148;DHT22;12309;51.450;-2.624;2023-03-20T02:13:18;10.00;99.90
24148;DHT22;12309;51.450;-2.624;2023-03-20T02:16:06;10.00;99.90
24148;DHT22;12309;51.450;-2.624;2023-03-20T02:18:34;9.90;99.90
24148;DHT22;12309;51.450;-2.624;2023-03-20T02:32:40;10.10;99.90
24148;DHT22;12309;51.450;-2.624;2023-03-20T02:35:34;10.10;99.90
24148;DHT22;12309;51.450;-2.624;2023-03-20T02:46:19;10.30;99.90
24148;DHT22;12309;51.450;-2.624;2023-03-20T02:56:45;11.10;99.90
24148;DHT22;12309;51.450;-2.624;2023-03-20T02:59:45;10.50;99.90
24148;DHT22;12309;51.450;-2.624;2023-03-20T03:02:15;10.30;99.90
24148;DHT22;12309;51.450;-2.624;2023-03-20T03:04:49;10.40;99.90
24148;DHT22;12309;51.450;-2.624;2023-03-20T03:07:18;10.40;99.90
24148;DHT22;12309;51.450;-2.624;2023-03-20T03:09:52;10.40;99.90
24148;DHT22;12309;51.450;-2.624;2023-03-20T03:12:23;10.50;99.90
24148;DHT22;12309;51.450;-2.624;2023-03-20T03:14:54;10.50;99.90
24148;DHT22;12309;51.450;-2.624;2023-03-20T03:17:22;10.40;99.90
24148;DHT22;12309;51.450;-2.624;2023-03-20T03:19:53;10.40;99.90
24148;DHT22;12309;51.450;-2.624;2023-03-20T03:22:20;10.40;99.90
24148;DHT22;12309;51.450;-2.624;2023-03-20T03:24:55;10.40;99.90
24148;DHT22;12309;51.450;-2.624;2023-03-20T03:27:38;10.50;99.90
24148;DHT22;12309;51.450;-2.624;2023-03-20T03:30:13;10.50;99.90
24148;DHT22;12309;51.450;-2.624;2023-03-20T03:35:13;10.50;99.90
24148;DHT22;12309;51.450;-2.624;2023-03-20T03:37:59;10.50;99.90
24148;DHT22;12309;51.450;-2.624;2023-03-20T03:43:34;10.50;99.90
24148;DHT22;12309;51.450;-2.624;2023-03-20T03:46:12;10.40;99.90
24148;DHT22;12309;51.450;-2.624;2023-03-20T03:48:47;10.40;99.90
24148;DHT22;12309;51.450;-2.624;2023-03-20T03:51:20;10.40;99.90
24148;DHT22;12309;51.450;-2.624;2023-03-20T03:54:03;10.40;99.90
24148;DHT22;12309;51.450;-2.624;2023-03-20T03:56:33;10.40;99.90
24148;DHT22;12309;51.450;-2.624;2023-03-20T03:59:05;10.40;99.90
24148;DHT22;12309;51.450;-2.624;2023-03-20T04:01:33;10.40;99.90
24148;DHT22;12309;51.450;-2.624;2023-03-20T04:04:06;10.40;99.90
24148;DHT22;12309;51.450;-2.624;2023-03-20T04:06:32;10.40;99.90
24148;DHT22;12309;51.450;-2.624;2023-03-20T04:08:58;10.40;99.90
24148;DHT22;12309;51.450;-2.624;2023-03-20T04:11:25;10.40;99.90
24148;DHT22;12309;51.450;-2.624;2023-03-20T04:13:52;10.50;99.90
24148;DHT22;12309;51.450;-2.624;2023-03-20T04:16:19;10.40;99.90
24148;DHT22;12309;51.450;-2.624;2023-03-20T04:18:45;10.40;99.90
24148;DHT22;12309;51.450;-2.624;2023-03-20T04:21:11;10.40;99.90
24148;DHT22;12309;51.450;-2.624;2023-03-20T04:23:37;10.30;99.90
24148;DHT22;12309;51.450;-2.624;2023-03-20T04:26:03;10.30;99.90
24148;DHT22;12309;51.450;-2.624;2023-03-20T04:28:29;10.30;99.90
24148;DHT22;12309;51.450;-2.624;2023-03-20T04:30:57;10.40;99.90
24148;DHT22;12309;51.450;-2.624;2023-03-20T04:33:23;10.40;99.90
24148;DHT22;12309;51.450;-2.624;2023-03-20T04:38:16;10.50;99.90
24148;DHT22;12309;51.450;-2.624;2023-03-20T04:40:43;10.50;99.90
24148;DHT22;12309;51.450;-2.624;2023-03-20T04:43:09;10.50;99.90
24148;DHT22;12309;51.450;-2.624;2023-03-20T04:45:34;10.40;99.90
24148;DHT22;12309;51.450;-2.624;2023-03-20T04:48:00;10.50;99.90
24148;DHT22;12309;51.450;-2.624;2023-03-20T04:50:26;10.50;99.90
24148;DHT22;12309;51.450;-2.624;2023-03-20T04:52:52;10.50;99.90
24148;DHT22;12309;51.450;-2.624;2023-03-20T04:55:17;10.60;99.90
24148;DHT22;12309;51.450;-2.624;2023-03-20T04:57:43;10.60;99.90
24148;DHT22;12309;51.450;-2.624;2023-03-20T05:00:09;10.60;99.90
24148;DHT22;12309;51.450;-2.624;2023-03-20T05:02:35;10.60;99.90
24148;DHT22;12309;51.450;-2.624;2023-03-20T05:05:01;10.70;99.90
24148;DHT22;12309;51.450;-2.624;2023-03-20T05:07:27;10.70;99.90
24148;DHT22;12309;51.450;-2.624;2023-03-20T05:09:52;10.60;99.90
24148;DHT22;12309;51.450;-2.624;2023-03-20T05:12:18;10.70;99.90
24148;DHT22;12309;51.450;-2.624;2023-03-20T05:14:44;10.70;99.90
24148;DHT22;12309;51.450;-2.624;2023-03-20T05:17:09;10.80;99.90
24148;DHT22;12309;51.450;-2.624;2023-03-20T05:19:35;10.80;99.90
24148;DHT22;12309;51.450;-2.624;2023-03-20T05:22:01;10.80;99.90
24148;DHT22;12309;51.450;-2.624;2023-03-20T05:24:27;10.80;99.90
24148;DHT22;12309;51.450;-2.624;2023-03-20T05:26:53;10.90;99.90
24148;DHT22;12309;51.450;-2.624;2023-03-20T05:29:19;10.90;99.90
24148;DHT22;12309;51.450;-2.624;2023-03-20T05:31:45;10.90;99.90
24148;DHT22;12309;51.450;-2.624;2023-03-20T05:34:11;10.90;99.90
24148;DHT22;12309;51.450;-2.624;2023-03-20T05:36:37;10.90;99.90
24148;DHT22;12309;51.450;-2.624;2023-03-20T05:39:03;10.80;99.90
24148;DHT22;12309;51.450;-2.624;2023-03-20T05:41:28;10.90;99.90
24148;DHT22;12309;51.450;-2.624;2023-03-20T05:43:54;10.80;99.90
24148;DHT22;12309;51.450;-2.624;2023-03-20T05:46:19;10.90;99.90
24148;DHT22;12309;51.450;-2.624;2023-03-20T05:48:45;10.90;99.90
24148;DHT22;12309;51.450;-2.624;2023-03-20T05:51:11;10.80;99.90
24148;DHT22;12309;51.450;-2.624;2023-03-20T05:53:36;10.90;99.90
24148;DHT22;12309;51.450;-2.624;2023-03-20T05:56:02;10.90;99.90
24148;DHT22;12309;51.450;-2.624;2023-03-20T05:58:28;10.90;99.90
24148;DHT22;12309;51.450;-2.624;2023-03-20T06:00:56;10.90;99.90
24148;DHT22;12309;51.450;-2.624;2023-03-20T06:03:23;10.90;99.90
24148;DHT22;12309;51.450;-2.624;2023-03-20T06:05:49;11.00;99.90
24148;DHT22;12309;51.450;-2.624;2023-03-20T06:08:15;10.90;99.90
24148;DHT22;12309;51.450;-2.624;2023-03-20T06:10:40;11.00;99.90
24148;DHT22;12309;51.450;-2.624;2023-03-20T06:13:06;11.10;99.90
24148;DHT22;12309;51.450;-2.624;2023-03-20T06:15:32;10.80;99.90
24148;DHT22;12309;51.450;-2.624;2023-03-20T06:17:58;11.00;99.90
24148;DHT22;12309;51.450;-2.624;2023-03-20T06:20:24;11.10;99.90
24148;DHT22;12309;51.450;-2.624;2023-03-20T06:22:50;11.00;99.90
24148;DHT22;12309;51.450;-2.624;2023-03-20T06:25:16;11.10;99.90
24148;DHT22;12309;51.450;-2.624;2023-03-20T06:27:42;11.10;99.90
24148;DHT22;12309;51.450;-2.624;2023-03-20T06:30:09;11.10;99.90
24148;DHT22;12309;51.450;-2.624;2023-03-20T06:32:35;11.20;99.90
24148;DHT22;12309;51.450;-2.624;2023-03-20T06:35:01;11.10;99.90
24148;DHT22;12309;51.450;-2.624;2023-03-20T06:37:26;11.20;99.90
24148;DHT22;12309;51.450;-2.624;2023-03-20T06:39:52;11.30;99.90
24148;DHT22;12309;51.450;-2.624;2023-03-20T06:42:17;11.20;99.90
24148;DHT22;12309;51.450;-2.624;2023-03-20T06:44:43;11.20;99.90
24148;DHT22;12309;51.450;-2.624;2023-03-20T06:47:08;11.30;99.90
24148;DHT22;12309;51.450;-2.624;2023-03-20T06:49:34;11.40;99.90
24148;DHT22;12309;51.450;-2.624;2023-03-20T06:52:00;11.30;99.90
24148;DHT22;12309;51.450;-2.624;2023-03-20T06:54:26;11.30;99.90
24148;DHT22;12309;51.450;-2.624;2023-03-20T06:56:53;11.40;99.90
24148;DHT22;12309;51.450;-2.624;2023-03-20T06:59:19;11.50;99.90
24148;DHT22;12309;51.450;-2.624;2023-03-20T07:01:45;11.50;99.90
24148;DHT22;12309;51.450;-2.624;2023-03-20T07:04:11;11.50;99.90
24148;DHT22;12309;51.450;-2.624;2023-03-20T07:06:36;11.50;99.90
24148;DHT22;12309;51.450;-2.624;2023-03-20T07:09:02;11.50;99.90
24148;DHT22;12309;51.450;-2.624;2023-03-20T07:11:28;11.60;99.90
24148;DHT22;12309;51.450;-2.624;2023-03-20T07:13:55;11.60;99.90
24148;DHT22;12309;51.450;-2.624;2023-03-20T07:16:21;11.60;99.90
24148;DHT22;12309;51.450;-2.624;2023-03-20T07:18:46;11.60;99.90
24148;DHT22;12309;51.450;-2.624;2023-03-20T07:21:17;11.60;99.90
24148;DHT22;12309;51.450;-2.624;2023-03-20T07:23:44;11.70;99.90
24148;DHT22;12309;51.450;-2.624;2023-03-20T07:26:09;11.70;99.90
24148;DHT22;12309;51.450;-2.624;2023-03-20T07:28:35;11.70;99.90
24148;DHT22;12309;51.450;-2.624;2023-03-20T07:31:01;11.70;99.90
24148;DHT22;12309;51.450;-2.624;2023-03-20T07:33:26;11.80;99.90
24148;DHT22;12309;51.450;-2.624;2023-03-20T07:35:53;11.80;99.90
24148;DHT22;12309;51.450;-2.624;2023-03-20T07:38:20;11.80;99.90
24148;DHT22;12309;51.450;-2.624;2023-03-20T07:40:46;11.90;99.90
24148;DHT22;12309;51.450;-2.624;2023-03-20T07:43:14;11.90;99.90
24148;DHT22;12309;51.450;-2.624;2023-03-20T07:45:39;11.90;99.90
24148;DHT22;12309;51.450;-2.624;2023-03-20T07:48:05;12.00;99.90
24148;DHT22;12309;51.450;-2.624;2023-03-20T07:50:31;12.00;99.90
24148;DHT22;12309;51.450;-2.624;2023-03-20T07:52:56;12.00;99.90
24148;DHT22;12309;51.450;-2.624;2023-03-20T07:55:22;12.10;99.90
24148;DHT22;12309;51.450;-2.624;2023-03-20T07:57:48;12.00;99.90
24148;DHT22;12309;51.450;-2.624;2023-03-20T08:00:15;12.00;99.90
24148;DHT22;12309;51.450;-2.624;2023-03-20T08:02:41;12.10;99.90
24148;DHT22;12309;51.450;-2.624;2023-03-20T08:05:07;12.20;99.90
24148;DHT22;12309;51.450;-2.624;2023-03-20T08:07:33;12.10;99.90
24148;DHT22;12309;51.450;-2.624;2023-03-20T08:09:59;12.10;99.90
24148;DHT22;12309;51.450;-2.624;2023-03-20T08:12:25;12.20;99.90
24148;DHT22;12309;51.450;-2.624;2023-03-20T08:14:51;12.20;99.90
24148;DHT22;12309;51.450;-2.624;2023-03-20T08:17:17;12.20;99.90
24148;DHT22;12309;51.450;-2.624;2023-03-20T08:19:42;12.30;99.90
24148;DHT22;12309;51.450;-2.624;2023-03-20T08:22:08;12.30;99.90
24148;DHT22;12309;51.450;-2.624;2023-03-20T08:24:34;12.30;99.90
24148;DHT22;12309;51.450;-2.624;2023-03-20T08:26:59;12.30;99.90
24148;DHT22;12309;51.450;-2.624;2023-03-20T08:29:25;12.30;99.90
24148;DHT22;12309;51.450;-2.624;2023-03-20T08:31:51;12.40;99.90
24148;DHT22;12309;51.450;-2.624;2023-03-20T08:34:17;12.50;99.90
24148;DHT22;12309;51.450;-2.624;2023-03-20T08:36:42;12.40;99.90
24148;DHT22;12309;51.450;-2.624;2023-03-20T08:39:08;12.50;99.90
24148;DHT22;12309;51.450;-2.624;2023-03-20T08:41:36;12.60;99.90
24148;DHT22;12309;51.450;-2.624;2023-03-20T08:44:04;12.50;99.90
24148;DHT22;12309;51.450;-2.624;2023-03-20T08:46:30;12.50;99.90
24148;DHT22;12309;51.450;-2.624;2023-03-20T08:48:55;12.50;99.90
24148;DHT22;12309;51.450;-2.624;2023-03-20T08:51:23;12.40;99.90
24148;DHT22;12309;51.450;-2.624;2023-03-20T08:53:49;12.50;99.90
24148;DHT22;12309;51.450;-2.624;2023-03-20T08:56:14;12.60;99.90
24148;DHT22;12309;51.450;-2.624;2023-03-20T08:58:40;12.50;99.90
24148;DHT22;12309;51.450;-2.624;2023-03-20T09:01:07;12.60;99.90
24148;DHT22;12309;51.450;-2.624;2023-03-20T09:03:34;12.70;99.90
24148;DHT22;12309;51.450;-2.624;2023-03-20T09:06:03;13.70;99.90
24148;DHT22;12309;51.450;-2.624;2023-03-20T09:08:29;12.60;99.90
24148;DHT22;12309;51.450;-2.624;2023-03-20T09:10:54;12.60;99.90
24148;DHT22;12309;51.450;-2.624;2023-03-20T09:13:20;12.60;99.90
24148;DHT22;12309;51.450;-2.624;2023-03-20T09:15:47;12.50;99.90
24148;DHT22;12309;51.450;-2.624;2023-03-20T09:18:13;12.60;99.90
24148;DHT22;12309;51.450;-2.624;2023-03-20T09:20:38;12.60;99.90
24148;DHT22;12309;51.450;-2.624;2023-03-20T09:23:04;12.70;99.90
24148;DHT22;12309;51.450;-2.624;2023-03-20T09:25:30;12.70;99.90
24148;DHT22;12309;51.450;-2.624;2023-03-20T09:27:55;12.80;99.90
24148;DHT22;12309;51.450;-2.624;2023-03-20T09:30:22;12.80;99.90
24148;DHT22;12309;51.450;-2.624;2023-03-20T09:32:48;12.80;99.90
24148;DHT22;12309;51.450;-2.624;2023-03-20T09:35:14;12.80;99.90
24148;DHT22;12309;51.450;-2.624;2023-03-20T09:37:40;12.80;99.90
24148;DHT22;12309;51.450;-2.624;2023-03-20T09:40:06;12.80;99.90
24148;DHT22;12309;51.450;-2.624;2023-03-20T09:43:15;12.80;99.90
24148;DHT22;12309;51.450;-2.624;2023-03-20T09:51:00;12.90;99.90
24148;DHT22;12309;51.450;-2.624;2023-03-20T09:53:46;13.00;99.90
24148;DHT22;12309;51.450;-2.624;2023-03-20T09:56:16;12.90;99.90
24148;DHT22;12309;51.450;-2.624;2023-03-20T09:58:56;12.90;99.90
24148;DHT22;12309;51.450;-2.624;2023-03-20T10:01:26;12.90;99.90
24148;DHT22;12309;51.450;-2.624;2023-03-20T10:04:05;12.90;99.90
24148;DHT22;12309;51.450;-2.624;2023-03-20T10:06:34;12.80;99.90
24148;DHT22;12309;51.450;-2.624;2023-03-20T10:09:00;12.90;99.90
24148;DHT22;12309;51.450;-2.624;2023-03-20T10:20:00;13.00;99.90
24148;DHT22;12309;51.450;-2.624;2023-03-20T10:22:37;12.90;99.90
24148;DHT22;12309;51.450;-2.624;2023-03-20T10:27:45;12.90;99.90
24148;DHT22;12309;51.450;-2.624;2023-03-20T10:30:21;13.00;99.90
24148;DHT22;12309;51.450;-2.624;2023-03-20T10:38:31;13.00;99.90
24148;DHT22;12309;51.450;-2.624;2023-03-20T10:41:01;13.00;99.90
24148;DHT22;12309;51.450;-2.624;2023-03-20T10:43:34;12.90;99.90
24148;DHT22;12309;51.450;-2.624;2023-03-20T10:48:37;12.90;99.90
24148;DHT22;12309;51.450;-2.624;2023-03-20T10:51:06;13.00;99.90
24148;DHT22;12309;51.450;-2.624;2023-03-20T10:56:10;13.20;99.90
24148;DHT22;12309;51.450;-2.624;2023-03-20T10:58:39;13.30;99.90
24148;DHT22;12309;51.450;-2.624;2023-03-20T11:01:06;13.30;99.90
24148;DHT22;12309;51.450;-2.624;2023-03-20T11:03:32;13.50;99.90
24148;DHT22;12309;51.450;-2.624;2023-03-20T11:06:01;13.60;99.90
24148;DHT22;12309;51.450;-2.624;2023-03-20T11:08:35;13.60;99.90
24148;DHT22;12309;51.450;-2.624;2023-03-20T11:11:02;13.60;99.90
24148;DHT22;12309;51.450;-2.624;2023-03-20T11:13:32;13.50;99.90
24148;DHT22;12309;51.450;-2.624;2023-03-20T11:16:29;13.30;99.90
24148;DHT22;12309;51.450;-2.624;2023-03-20T11:19:07;13.50;99.90
24148;DHT22;12309;51.450;-2.624;2023-03-20T11:21:36;13.50;99.90
24148;DHT22;12309;51.450;-2.624;2023-03-20T11:24:23;13.50;99.90
24148;DHT22;12309;51.450;-2.624;2023-03-20T11:26:50;13.60;99.90
24148;DHT22;12309;51.450;-2.624;2023-03-20T11:29:29;13.70;99.90
24148;DHT22;12309;51.450;-2.624;2023-03-20T11:34:32;13.50;99.90
24148;DHT22;12309;51.450;-2.624;2023-03-20T11:37:00;13.40;99.90
24148;DHT22;12309;51.450;-2.624;2023-03-20T11:39:31;13.40;99.90
24148;DHT22;12309;51.450;-2.624;2023-03-20T11:41:59;13.30;99.90
24148;DHT22;12309;51.450;-2.624;2023-03-20T11:49:51;13.30;99.90
24148;DHT22;12309;51.450;-2.624;2023-03-20T11:52:21;13.40;99.90
24148;DHT22;12309;51.450;-2.624;2023-03-20T11:54:51;13.40;99.90
24148;DHT22;12309;51.450;-2.624;2023-03-20T11:57:37;13.40;99.90
24148;DHT22;12309;51.450;-2.624;2023-03-20T12:00:20;13.30;99.90
24148;DHT22;12309;51.450;-2.624;2023-03-20T12:02:47;13.30;99.90
24148;DHT22;12309;51.450;-2.624;2023-03-20T12:07:45;13.40;99.90
24148;DHT22;12309;51.450;-2.624;2023-03-20T12:10:13;13.30;99.90
24148;DHT22;12309;51.450;-2.624;2023-03-20T12:12:49;13.30;99.90
24148;DHT22;12309;51.450;-2.624;2023-03-20T12:15:36;13.20;99.90
24148;DHT22;12309;51.450;-2.624;2023-03-20T12:18:12;13.40;99.90
24148;DHT22;12309;51.450;-2.624;2023-03-20T12:20:53;13.40;99.90
24148;DHT22;12309;51.450;-2.624;2023-03-20T12:23:34;13.40;99.90
24148;DHT22;12309;51.450;-2.624;2023-03-20T12:26:07;13.20;99.90
24148;DHT22;12309;51.450;-2.624;2023-03-20T12:36:43;13.50;99.90
24148;DHT22;12309;51.450;-2.624;2023-03-20T12:39:13;13.50;99.90
24148;DHT22;12309;51.450;-2.624;2023-03-20T13:01:03;13.80;99.90
24148;DHT22;12309;51.450;-2.624;2023-03-20T13:03:55;13.90;99.90
24148;DHT22;12309;51.450;-2.624;2023-03-20T13:06:50;14.00;99.90
24148;DHT22;12309;51.450;-2.624;2023-03-20T13:09:30;13.90;99.90
24148;DHT22;12309;51.450;-2.624;2023-03-20T13:22:55;13.90;99.90
24148;DHT22;12309;51.450;-2.624;2023-03-20T13:31:16;14.00;99.90
24148;DHT22;12309;51.450;-2.624;2023-03-20T13:37:08;14.10;99.90
24148;DHT22;12309;51.450;-2.624;2023-03-20T13:39:43;14.30;99.90
24148;DHT22;12309;51.450;-2.624;2023-03-20T13:42:17;14.20;99.90
24148;DHT22;12309;51.450;-2.624;2023-03-20T13:44:46;14.00;99.90
24148;DHT22;12309;51.450;-2.624;2023-03-20T13:47:18;14.20;99.90
24148;DHT22;12309;51.450;-2.624;2023-03-20T13:52:33;14.50;99.90
24148;DHT22;12309;51.450;-2.624;2023-03-20T13:55:20;14.40;99.90
24148;DHT22;12309;51.450;-2.624;2023-03-20T14:03:17;14.10;99.90
24148;DHT22;12309;51.450;-2.624;2023-03-20T14:05:45;14.10;99.90
24148;DHT22;12309;51.450;-2.624;2023-03-20T14:11:06;13.90;99.90
24148;DHT22;12309;51.450;-2.624;2023-03-20T14:13:36;13.80;99.90
24148;DHT22;12309;51.450;-2.624;2023-03-20T14:16:06;13.80;99.90
24148;DHT22;12309;51.450;-2.624;2023-03-20T14:18:32;13.70;99.90
24148;DHT22;12309;51.450;-2.624;2023-03-20T14:21:08;13.80;99.90
24148;DHT22;12309;51.450;-2.624;2023-03-20T14:23:38;13.70;99.90
24148;DHT22;12309;51.450;-2.624;2023-03-20T14:26:11;13.70;99.90
24148;DHT22;12309;51.450;-2.624;2023-03-20T14:29:00;13.70;99.90
24148;DHT22;12309;51.450;-2.624;2023-03-20T14:31:33;13.60;99.90
24148;DHT22;12309;51.450;-2.624;2023-03-20T14:36:59;13.30;99.90
24148;DHT22;12309;51.450;-2.624;2023-03-20T14:39:44;13.40;99.90
24148;DHT22;12309;51.450;-2.624;2023-03-20T14:50:33;13.20;99.90
24148;DHT22;12309;51.450;-2.624;2023-03-20T14:56:10;12.90;99.90
24148;DHT22;12309;51.450;-2.624;2023-03-20T14:58:46;12.90;99.90
24148;DHT22;12309;51.450;-2.624;2023-03-20T15:01:16;12.90;99.90
24148;DHT22;12309;51.450;-2.624;2023-03-20T15:03:48;12.90;99.90
24148;DHT22;12309;51.450;-2.624;2023-03-20T15:06:18;13.00;99.90
24148;DHT22;12309;51.450;-2.624;2023-03-20T15:08:47;12.90;99.90
24148;DHT22;12309;51.450;-2.624;2023-03-20T15:11:14;13.00;99.90
24148;DHT22;12309;51.450;-2.624;2023-03-20T15:13:41;13.00;99.90
24148;DHT22;12309;51.450;-2.624;2023-03-20T15:16:09;12.80;99.90
24148;DHT22;12309;51.450;-2.624;2023-03-20T15:18:48;12.90;99.90
24148;DHT22;12309;51.450;-2.624;2023-03-20T15:21:22;12.90;99.90
24148;DHT22;12309;51.450;-2.624;2023-03-20T15:23:51;13.00;99.90
24148;DHT22;12309;51.450;-2.624;2023-03-20T15:26:18;13.00;99.90
24148;DHT22;12309;51.450;-2.624;2023-03-20T15:28:45;13.00;99.90
24148;DHT22;12309;51.450;-2.624;2023-03-20T15:31:26;13.20;99.90
24148;DHT22;12309;51.450;-2.624;2023-03-20T15:33:54;13.00;99.90
24148;DHT22;12309;51.450;-2.624;2023-03-20T15:36:25;12.90;99.90
24148;DHT22;12309;51.450;-2.624;2023-03-20T15:38:52;12.90;99.90
24148;DHT22;12309;51.450;-2.624;2023-03-20T15:41:29;12.90;99.90
24148;DHT22;12309;51.450;-2.624;2023-03-20T15:46:39;12.70;99.90
24148;DHT22;12309;51.450;-2.624;2023-03-20T15:49:05;12.70;99.90
24148;DHT22;12309;51.450;-2.624;2023-03-20T15:51:33;12.70;99.90
24148;DHT22;12309;51.450;-2.624;2023-03-20T15:54:00;12.70;99.90
24148;DHT22;12309;51.450;-2.624;2023-03-20T15:56:27;12.60;99.90
24148;DHT22;12309;51.450;-2.624;2023-03-20T15:58:55;12.50;99.90
24148;DHT22;12309;51.450;-2.624;2023-03-20T16:01:23;12.60;99.90
24148;DHT22;12309;51.450;-2.624;2023-03-20T16:03:50;12.50;99.90
24148;DHT22;12309;51.450;-2.624;2023-03-20T16:06:21;12.50;99.90
24148;DHT22;12309;51.450;-2.624;2023-03-20T16:08:59;12.40;99.90
24148;DHT22;12309;51.450;-2.624;2023-03-20T16:11:38;12.50;99.90
24148;DHT22;12309;51.450;-2.624;2023-03-20T16:14:05;12.50;99.90
24148;DHT22;12309;51.450;-2.624;2023-03-20T16:16:31;12.40;99.90
24148;DHT22;12309;51.450;-2.624;2023-03-20T16:19:03;12.50;99.90
24148;DHT22;12309;51.450;-2.624;2023-03-20T16:21:38;12.40;99.90
24148;DHT22;12309;51.450;-2.624;2023-03-20T16:24:14;12.30;99.90
24148;DHT22;12309;51.450;-2.624;2023-03-20T16:26:43;12.40;99.90
24148;DHT22;12309;51.450;-2.624;2023-03-20T16:29:12;12.40;99.90
24148;DHT22;12309;51.450;-2.624;2023-03-20T16:31:54;12.40;99.90
24148;DHT22;12309;51.450;-2.624;2023-03-20T16:34:30;12.40;99.90
24148;DHT22;12309;51.450;-2.624;2023-03-20T16:36:59;12.30;99.90
24148;DHT22;12309;51.450;-2.624;2023-03-20T16:39:28;12.30;99.90
24148;DHT22;12309;51.450;-2.624;2023-03-20T16:42:21;12.20;99.90
24148;DHT22;12309;51.450;-2.624;2023-03-20T16:44:55;12.20;99.90
24148;DHT22;12309;51.450;-2.624;2023-03-20T16:47:32;12.10;99.90
24148;DHT22;12309;51.450;-2.624;2023-03-20T16:50:22;12.20;99.90
24148;DHT22;12309;51.450;-2.624;2023-03-20T16:52:50;12.20;99.90
24148;DHT22;12309;51.450;-2.624;2023-03-20T16:55:22;12.00;99.90
24148;DHT22;12309;51.450;-2.624;2023-03-20T16:57:52;12.10;99.90
24148;DHT22;12309;51.450;-2.624;2023-03-20T17:00:27;12.00;99.90
24148;DHT22;12309;51.450;-2.624;2023-03-20T17:03:00;12.00;99.90
24148;DHT22;12309;51.450;-2.624;2023-03-20T17:05:40;12.00;99.90
24148;DHT22;12309;51.450;-2.624;2023-03-20T17:08:11;12.00;99.90
24148;DHT22;12309;51.450;-2.624;2023-03-20T17:10:37;11.90;99.90
24148;DHT22;12309;51.450;-2.624;2023-03-20T17:13:03;11.90;99.90
24148;DHT22;12309;51.450;-2.624;2023-03-20T17:15:31;11.80;99.90
24148;DHT22;12309;51.450;-2.624;2023-03-20T17:17:57;11.80;99.90
24148;DHT22;12309;51.450;-2.624;2023-03-20T17:20:27;11.80;99.90
24148;DHT22;12309;51.450;-2.624;2023-03-20T17:22:53;11.70;99.90
24148;DHT22;12309;51.450;-2.624;2023-03-20T17:25:19;11.70;99.90
24148;DHT22;12309;51.450;-2.624;2023-03-20T17:27:45;11.70;99.90
24148;DHT22;12309;51.450;-2.624;2023-03-20T17:30:19;12.60;99.90
24148;DHT22;12309;51.450;-2.624;2023-03-20T17:32:47;11.60;99.90
24148;DHT22;12309;51.450;-2.624;2023-03-20T17:35:13;11.70;99.90
24148;DHT22;12309;51.450;-2.624;2023-03-20T17:37:39;11.70;99.90
24148;DHT22;12309;51.450;-2.624;2023-03-20T17:40:06;11.60;99.90
24148;DHT22;12309;51.450;-2.624;2023-03-20T17:42:32;11.60;99.90
24148;DHT22;12309;51.450;-2.624;2023-03-20T17:44:59;11.50;99.90
24148;DHT22;12309;51.450;-2.624;2023-03-20T17:47:27;11.60;99.90
24148;DHT22;12309;51.450;-2.624;2023-03-20T17:49:53;11.60;99.90
24148;DHT22;12309;51.450;-2.624;2023-03-20T17:52:24;11.60;99.90
24148;DHT22;12309;51.450;-2.624;2023-03-20T17:54:50;11.60;99.90
24148;DHT22;12309;51.450;-2.624;2023-03-20T17:57:32;11.60;99.90
24148;DHT22;12309;51.450;-2.624;2023-03-20T17:59:58;11.40;99.90
24148;DHT22;12309;51.450;-2.624;2023-03-20T18:02:24;11.40;99.90